createdAt,value
2019-03-19T00:00:39.057Z,2.4
2019-03-19T00:03:39.063Z,3.1
2019-03-19T00:06:39.050Z,2.7
2019-03-19T00:09:39.086Z,3
2019-03-19T00:12:39.260Z,2.9
2019-03-19T00:15:39.173Z,2.5
2019-03-19T00:18:39.039Z,2.3
2019-03-19T00:21:38.943Z,2.5
2019-03-19T00:24:39.401Z,2.4
2019-03-19T00:27:39.306Z,2.8
2019-03-19T00:30:39.116Z,2.4
2019-03-19T00:33:39.197Z,2.5
2019-03-19T00:36:38.976Z,2.8
2019-03-19T00:39:38.924Z,2.3
2019-03-19T00:42:39.126Z,2.4
2019-03-19T00:45:39.818Z,2.4
2019-03-19T00:48:39.399Z,2.5
2019-03-19T00:51:38.894Z,2.6
2019-03-19T00:54:39.243Z,2.4
2019-03-19T00:57:38.952Z,2.4
2019-03-19T01:00:39.066Z,2.3
2019-03-19T01:03:39.046Z,2.3
2019-03-19T01:06:39.075Z,2.6
2019-03-19T01:09:39.016Z,2.6
2019-03-19T01:12:38.982Z,2.3
2019-03-19T01:15:39.016Z,2.4
2019-03-19T01:18:39.107Z,2.3
2019-03-19T01:21:39.220Z,2.3
2019-03-19T01:24:39.222Z,2.3
2019-03-19T01:27:39.034Z,2.4
2019-03-19T01:30:39.125Z,2.4
2019-03-19T01:33:39.004Z,2.6
2019-03-19T01:36:39.013Z,2.3
2019-03-19T01:39:39.164Z,2.4
2019-03-19T01:42:39.319Z,2.2
2019-03-19T01:45:39.462Z,2.4
2019-03-19T01:48:39.020Z,2.3
2019-03-19T01:51:39.542Z,2.3
2019-03-19T01:54:39.200Z,2.2
2019-03-19T01:57:39.197Z,2.4
2019-03-19T02:00:38.870Z,2.2
2019-03-19T02:03:38.888Z,2.3
2019-03-19T02:06:38.979Z,2.3
2019-03-19T02:09:38.973Z,2.6
2019-03-19T02:12:39.542Z,2.2
2019-03-19T02:15:39.296Z,2.4
2019-03-19T02:18:38.951Z,2.4
2019-03-19T02:21:38.957Z,2.4
2019-03-19T02:24:39.052Z,2.3
2019-03-19T02:27:38.834Z,2.4
2019-03-19T02:30:39.189Z,2.9
2019-03-19T02:33:39.373Z,2.9
2019-03-19T02:36:38.964Z,2.4
2019-03-19T02:39:39.075Z,2.4
2019-03-19T02:42:39.202Z,2.2
2019-03-19T02:45:39.092Z,2.4
2019-03-19T02:48:40.238Z,2.2
2019-03-19T02:51:39.059Z,2.4
2019-03-19T02:54:39.013Z,2.4
2019-03-19T02:57:39.033Z,3.1
2019-03-19T03:00:39.257Z,2.4
2019-03-19T03:03:39.106Z,2.1
2019-03-19T03:06:39.206Z,2.2
2019-03-19T03:09:39.068Z,2.6
2019-03-19T03:12:38.912Z,2.4
2019-03-19T03:15:39.077Z,2.2
2019-03-19T03:18:39.470Z,2.4
2019-03-19T03:21:39.017Z,2.2
2019-03-19T03:24:39.125Z,2.2
2019-03-19T03:27:38.903Z,2.5
2019-03-19T03:30:39.158Z,2.3
2019-03-19T03:33:39.455Z,2.4
2019-03-19T03:36:39.029Z,2.4
2019-03-19T03:39:39.009Z,2.1
2019-03-19T03:42:39.045Z,2.3
2019-03-19T03:45:39.126Z,2.2
2019-03-19T03:48:38.931Z,2.3
2019-03-19T03:51:39.088Z,2.3
2019-03-19T03:54:39.229Z,2.3
2019-03-19T03:57:39.005Z,2.2
2019-03-19T04:00:39.341Z,2
2019-03-19T04:03:39.060Z,2.1
2019-03-19T04:06:38.946Z,2.1
2019-03-19T04:09:38.899Z,2.2
2019-03-19T04:12:38.982Z,2.1
2019-03-19T04:15:39.018Z,2.4
2019-03-19T04:18:39.123Z,2.4
2019-03-19T04:21:39.135Z,2.1
2019-03-19T04:24:39.015Z,2.4
2019-03-19T04:27:41.595Z,2.2
2019-03-19T04:30:39.071Z,2.2
2019-03-19T04:33:38.929Z,2.2
2019-03-19T04:36:39.042Z,2.2
2019-03-19T04:39:38.830Z,2
2019-03-19T04:42:38.936Z,2.2
2019-03-19T04:45:39.032Z,2.2
2019-03-19T04:48:38.920Z,2.2
2019-03-19T04:51:38.969Z,2.4
2019-03-19T04:54:39.048Z,2.3
2019-03-19T04:57:39.077Z,2.2
2019-03-19T05:00:38.864Z,2.1
2019-03-19T05:03:38.969Z,2
2019-03-19T05:06:39.067Z,1.9
2019-03-19T05:09:39.020Z,2.1
2019-03-19T05:12:38.935Z,2.1
2019-03-19T05:15:39.178Z,2.1
2019-03-19T05:18:38.937Z,2.4
2019-03-19T05:21:38.996Z,2.4
2019-03-19T05:24:38.974Z,2.2
2019-03-19T05:27:39.329Z,2.2
2019-03-19T05:30:39.052Z,2.1
2019-03-19T05:33:39.183Z,2.2
2019-03-19T05:36:38.845Z,1.9
2019-03-19T05:39:38.864Z,2.2
2019-03-19T05:42:38.898Z,2.1
2019-03-19T05:45:38.917Z,2.2
2019-03-19T05:48:39.016Z,1.9
2019-03-19T05:51:38.945Z,2.1
2019-03-19T05:54:38.878Z,2.1
2019-03-19T05:57:50.930Z,2.1
2019-03-19T06:00:38.971Z,2.1
2019-03-19T06:03:38.931Z,2
2019-03-19T06:06:39.049Z,2.2
2019-03-19T06:09:39.036Z,2.2
2019-03-19T06:12:38.837Z,2
2019-03-19T06:15:38.877Z,2
2019-03-19T06:18:38.951Z,1.9
2019-03-19T06:21:38.984Z,2.3
2019-03-19T06:24:38.971Z,2
2019-03-19T06:27:38.843Z,2
2019-03-19T06:30:38.863Z,1.9
2019-03-19T06:33:39.376Z,2
2019-03-19T06:36:38.964Z,2
2019-03-19T06:39:38.979Z,1.9
2019-03-19T06:42:39.154Z,2.1
2019-03-19T06:45:39.054Z,2.1
2019-03-19T06:48:38.788Z,1.9
2019-03-19T06:51:38.873Z,2
2019-03-19T06:54:38.956Z,2
2019-03-19T06:57:39.961Z,2.1
2019-03-19T07:00:38.977Z,2.3
2019-03-19T07:03:39.082Z,1.9
2019-03-19T07:06:38.886Z,2
2019-03-19T07:09:38.856Z,1.9
2019-03-19T07:12:38.913Z,1.9
2019-03-19T07:15:39.018Z,2
2019-03-19T07:18:39.020Z,1.9
2019-03-19T07:21:39.027Z,2
2019-03-19T07:24:38.797Z,2
2019-03-19T07:27:38.932Z,1.9
2019-03-19T07:30:41.270Z,2.1
2019-03-19T07:33:38.946Z,2
2019-03-19T07:36:38.986Z,1.9
2019-03-19T07:39:39.005Z,2
2019-03-19T07:42:38.838Z,1.9
2019-03-19T07:45:38.885Z,1.9
2019-03-19T07:48:39.088Z,1.9
2019-03-19T07:51:39.050Z,2
2019-03-19T07:54:39.037Z,1.9
2019-03-19T07:57:39.060Z,2
2019-03-19T08:00:38.768Z,2
2019-03-19T08:03:38.790Z,2
2019-03-19T08:06:39.103Z,2.1
2019-03-19T08:09:40.390Z,2
2019-03-19T08:12:38.931Z,2
2019-03-19T08:15:38.743Z,1.9
2019-03-19T08:18:38.795Z,3.1
2019-03-19T08:21:38.914Z,2.1
2019-03-19T08:24:38.927Z,2.3
2019-03-19T08:27:38.927Z,2.8
2019-03-19T08:30:38.965Z,2
2019-03-19T08:33:39.030Z,2.8
2019-03-19T08:36:38.845Z,2.8
2019-03-19T08:39:38.776Z,4
2019-03-19T08:42:39.191Z,3.6
2019-03-19T08:45:38.965Z,4.4
2019-03-19T08:48:38.941Z,2.9
2019-03-19T08:51:38.993Z,3.1
2019-03-19T08:54:38.953Z,3.4
2019-03-19T08:57:38.836Z,2
2019-03-19T09:00:38.967Z,1.9
2019-03-19T09:03:39.001Z,1.9
2019-03-19T09:06:38.963Z,2.5
2019-03-19T09:09:38.778Z,4.5
2019-03-19T09:12:38.824Z,2.5
2019-03-19T09:15:38.827Z,2.8
2019-03-19T09:18:39.022Z,2.5
2019-03-19T09:21:38.930Z,2
2019-03-19T09:24:39.013Z,2.4
2019-03-19T09:27:38.774Z,2.8
2019-03-19T09:30:38.784Z,1.7
2019-03-19T09:33:38.921Z,3.7
2019-03-19T09:36:38.921Z,1.8
2019-03-19T09:39:39.025Z,2.4
2019-03-19T09:42:39.029Z,3.3
2019-03-19T09:45:38.804Z,1.9
2019-03-19T09:48:38.746Z,2.5
2019-03-19T09:51:38.806Z,1.9
2019-03-19T09:54:38.869Z,1.9
2019-03-19T09:57:38.954Z,1.9
2019-03-19T10:00:38.751Z,3.4
2019-03-19T10:03:38.764Z,2.2
2019-03-19T10:06:39.121Z,1.8
2019-03-19T10:09:38.939Z,1.8
2019-03-19T10:12:39.034Z,1.8
2019-03-19T10:15:39.273Z,1.8
2019-03-19T10:18:38.666Z,1.9
2019-03-19T10:21:38.793Z,1.9
2019-03-19T10:24:38.805Z,2
2019-03-19T10:27:38.797Z,2.1
2019-03-19T10:30:38.888Z,1.6
2019-03-19T10:33:38.972Z,1.7
2019-03-19T10:36:38.867Z,1.9
2019-03-19T10:39:38.817Z,2.4
2019-03-19T10:42:38.929Z,2
2019-03-19T10:45:38.845Z,1.9
2019-03-19T10:48:38.907Z,1.7
2019-03-19T10:51:38.939Z,1.9
2019-03-19T10:54:38.635Z,1.8
2019-03-19T10:57:38.663Z,1.8
2019-03-19T11:00:38.701Z,1.8
2019-03-19T11:03:38.866Z,1.9
2019-03-19T11:06:38.892Z,1.5
2019-03-19T11:09:38.906Z,1.8
2019-03-19T11:12:38.752Z,1.7
2019-03-19T11:15:38.740Z,1.8
2019-03-19T11:18:38.815Z,1.9
2019-03-19T11:21:40.684Z,1.7
2019-03-19T11:24:38.870Z,1.6
2019-03-19T11:27:38.936Z,1.9
2019-03-19T11:30:38.666Z,2
2019-03-19T11:33:38.790Z,2
2019-03-19T11:36:38.786Z,1.7
2019-03-19T11:39:38.868Z,1.7
2019-03-19T11:42:38.975Z,2.1
2019-03-19T11:45:38.977Z,1.7
2019-03-19T11:48:38.693Z,1.6
2019-03-19T11:51:38.756Z,1.6
2019-03-19T11:54:38.768Z,1.6
2019-03-19T11:57:38.867Z,2.2
2019-03-19T12:00:39.240Z,1.8
2019-03-19T12:03:39.604Z,1.5
2019-03-19T12:06:38.686Z,2.1
2019-03-19T12:09:40.526Z,1.6
2019-03-19T12:12:38.830Z,1.7
2019-03-19T12:15:38.985Z,1.5
2019-03-19T12:18:38.914Z,1.7
2019-03-19T12:21:38.903Z,1.5
2019-03-19T12:24:38.754Z,1.5
2019-03-19T12:27:38.779Z,1.6
2019-03-19T12:30:38.797Z,1.5
2019-03-19T12:33:41.987Z,1.5
2019-03-19T12:36:38.814Z,1.4
2019-03-19T12:39:38.956Z,1.5
2019-03-19T12:42:38.670Z,1.8
2019-03-19T12:45:38.721Z,1.6
2019-03-19T12:48:38.710Z,1.6
2019-03-19T12:51:38.851Z,1.6
2019-03-19T12:54:38.971Z,1.6
2019-03-19T12:57:38.998Z,2.2
2019-03-19T13:00:38.817Z,1.8
2019-03-19T13:03:38.928Z,1.5
2019-03-19T13:06:38.903Z,1.5
2019-03-19T13:09:38.849Z,1.6
2019-03-19T13:12:38.776Z,1.7
2019-03-19T13:15:38.979Z,1.7
2019-03-19T13:18:38.763Z,1.5
2019-03-19T13:21:38.686Z,1.5
2019-03-19T13:24:38.820Z,1.5
2019-03-19T13:27:38.837Z,1.7
2019-03-19T13:30:45.774Z,1.4
2019-03-19T13:33:38.862Z,2
2019-03-19T13:36:38.815Z,1.5
2019-03-19T13:39:40.824Z,1.5
2019-03-19T13:42:38.801Z,1.6
2019-03-19T13:45:38.834Z,1.5
2019-03-19T13:48:38.896Z,1.5
2019-03-19T13:51:39.177Z,1.4
2019-03-19T13:54:38.626Z,1.6
2019-03-19T13:57:38.678Z,1.5
2019-03-19T14:00:38.674Z,1.4
2019-03-19T14:03:38.737Z,1.5
2019-03-19T14:06:38.992Z,1.4
2019-03-19T14:09:38.731Z,1.6
2019-03-19T14:12:38.809Z,1.4
2019-03-19T14:15:38.748Z,1.5
2019-03-19T14:18:38.767Z,1.4
2019-03-19T14:21:39.135Z,1.7
2019-03-19T14:24:39.098Z,1.6
2019-03-19T14:27:39.179Z,1.5
2019-03-19T14:30:38.916Z,2
2019-03-19T14:33:38.658Z,1.4
2019-03-19T14:36:38.663Z,1.6
2019-03-19T14:39:38.695Z,1.5
2019-03-19T14:42:38.756Z,1.4
2019-03-19T14:45:38.603Z,1.5
2019-03-19T14:48:38.888Z,2.3
2019-03-19T14:51:38.734Z,2.4
2019-03-19T14:54:38.778Z,1.3
2019-03-19T14:57:39.284Z,1.4
2019-03-19T15:00:38.705Z,1.4
2019-03-19T15:03:38.853Z,1.7
2019-03-19T15:06:38.947Z,2.2
2019-03-19T15:09:38.621Z,1.9
2019-03-19T15:12:38.869Z,1.7
2019-03-19T15:15:38.688Z,5.7
2019-03-19T15:18:39.076Z,2.8
2019-03-19T15:21:38.745Z,1.5
2019-03-19T15:24:38.809Z,1.7
2019-03-19T15:27:38.779Z,1.4
2019-03-19T15:30:38.691Z,1.6
2019-03-19T15:33:38.790Z,2
2019-03-19T15:36:38.772Z,2
2019-03-19T15:39:38.759Z,1.4
2019-03-19T15:42:38.848Z,3.1
2019-03-19T15:45:38.917Z,5.1
2019-03-19T15:48:38.731Z,7.1
2019-03-19T15:51:38.615Z,6.9
2019-03-19T15:54:38.590Z,6
2019-03-19T15:57:38.720Z,6.2
2019-03-19T16:00:38.927Z,5.5
2019-03-19T16:03:38.843Z,5
2019-03-19T16:06:38.616Z,5.9
2019-03-19T16:09:38.699Z,5.1
2019-03-19T16:12:38.750Z,6
2019-03-19T16:15:38.995Z,4.3
2019-03-19T16:18:38.879Z,6.5
2019-03-19T16:21:38.791Z,5.3
2019-03-19T16:24:39.734Z,5.6
2019-03-19T16:27:38.602Z,5.2
2019-03-19T16:30:38.782Z,4.8
2019-03-19T16:33:38.738Z,4.7
2019-03-19T16:36:38.824Z,5.9
2019-03-19T16:39:38.819Z,6.1
2019-03-19T16:42:38.989Z,5.5
2019-03-19T16:45:39.013Z,7.5
2019-03-19T16:48:38.591Z,4.9
2019-03-19T16:51:38.702Z,5.4
2019-03-19T16:54:38.782Z,7.6
2019-03-19T16:57:38.827Z,5.9
2019-03-19T17:00:38.658Z,6.2
2019-03-19T17:03:39.177Z,4.4
2019-03-19T17:06:38.602Z,4.2
2019-03-19T17:09:38.740Z,3.7
2019-03-19T17:12:38.678Z,3.6
2019-03-19T17:15:38.537Z,4.3
2019-03-19T17:18:38.790Z,3.5
2019-03-19T17:21:38.724Z,4.5
2019-03-19T17:24:38.648Z,3.4
2019-03-19T17:27:38.683Z,3.4
2019-03-19T17:30:38.672Z,3.5
2019-03-19T17:33:38.936Z,2.7
2019-03-19T17:36:38.759Z,2.1
2019-03-19T17:39:38.986Z,2.4
2019-03-19T17:42:38.691Z,2.5
2019-03-19T17:45:38.655Z,2.3
2019-03-19T17:48:38.634Z,4
2019-03-19T17:51:39.129Z,2.2
2019-03-19T17:54:38.774Z,2.3
2019-03-19T17:57:38.811Z,2.5
2019-03-19T18:00:38.598Z,1.7
2019-03-19T18:03:38.588Z,3.5
2019-03-19T18:06:38.643Z,2.3
2019-03-19T18:09:38.814Z,2.3
2019-03-19T18:12:38.884Z,4
2019-03-19T18:15:38.887Z,3.3
2019-03-19T18:18:38.556Z,2.3
2019-03-19T18:21:38.671Z,3.1
2019-03-19T18:24:38.590Z,2.8
2019-03-19T18:27:38.656Z,3
2019-03-19T18:30:38.923Z,3.9
2019-03-19T18:33:38.928Z,2.3
2019-03-19T18:41:55.155Z,1.8
2019-03-19T18:44:55.045Z,2.4
2019-03-19T18:47:55.224Z,1.7
2019-03-19T18:50:55.211Z,2.2
2019-03-19T18:53:55.251Z,1.7
2019-03-19T18:56:55.505Z,1.8
2019-03-19T18:59:55.189Z,2.3
2019-03-19T19:02:54.938Z,1.8
2019-03-19T19:05:55.029Z,1.9
2019-03-19T19:08:55.198Z,1.9
2019-03-19T19:11:55.208Z,2.2
2019-03-19T19:14:54.998Z,2.1
2019-03-19T19:17:55.309Z,1.6
2019-03-19T19:20:54.997Z,2.1
2019-03-19T19:23:55.131Z,1.7
2019-03-19T19:26:55.327Z,1.7
2019-03-19T19:29:55.124Z,2.7
2019-03-19T19:33:03.204Z,7.4
2019-03-19T19:35:55.023Z,2.2
2019-03-19T19:38:55.109Z,4.2
2019-03-19T19:41:55.007Z,3.6
2019-03-19T19:44:55.097Z,2.2
2019-03-19T19:47:55.161Z,4.2
2019-03-19T19:50:54.915Z,2.5
2019-03-19T19:53:55.068Z,2.8
2019-03-19T19:56:55.204Z,2.5
2019-03-19T19:59:55.206Z,3.1
2019-03-19T20:02:55.166Z,9.4
2019-03-19T20:05:55.154Z,3.7
2019-03-19T20:08:55.995Z,3
2019-03-19T20:11:56.258Z,2.5
2019-03-19T20:14:55.040Z,2.8
2019-03-19T20:17:55.230Z,3.7
2019-03-19T20:20:55.403Z,3
2019-03-19T20:23:55.654Z,2.9
2019-03-19T20:26:55.014Z,3.2
2019-03-19T20:29:55.043Z,3.9
2019-03-19T20:32:55.073Z,2.8
2019-03-19T20:35:56.230Z,3.9
2019-03-19T20:38:55.226Z,3.7
2019-03-19T20:41:55.150Z,4.7
2019-03-19T20:44:55.088Z,3.4
2019-03-19T20:47:55.183Z,2.8
2019-03-19T20:50:54.988Z,3
2019-03-19T20:53:55.159Z,2.6
2019-03-19T20:56:55.165Z,3.6
2019-03-19T20:59:55.023Z,5.5
2019-03-19T21:02:55.005Z,3.8
2019-03-19T21:05:54.886Z,2.3
2019-03-19T21:08:55.291Z,3.6
2019-03-19T21:11:55.361Z,2.7
2019-03-19T21:14:55.522Z,2.4
2019-03-19T21:17:55.259Z,3.4
2019-03-19T21:20:55.100Z,2.3
2019-03-19T21:23:55.006Z,3.4
2019-03-19T21:26:55.130Z,3.2
2019-03-19T21:29:56.050Z,3.2
2019-03-19T21:32:55.273Z,3.4
2019-03-19T21:35:54.920Z,2.7
2019-03-19T21:38:54.932Z,2.7
2019-03-19T21:41:54.966Z,2.6
2019-03-19T21:44:55.064Z,2.7
2019-03-19T21:47:55.140Z,3.8
2019-03-19T21:50:54.999Z,2.3
2019-03-19T21:53:55.489Z,2.4
2019-03-19T21:56:54.954Z,2.7
2019-03-19T21:59:54.940Z,2.9
2019-03-19T22:02:54.937Z,2.3
2019-03-19T22:05:55.183Z,2.8
2019-03-19T22:08:55.058Z,2.6
2019-03-19T22:11:55.261Z,2.3
2019-03-19T22:14:54.971Z,3
2019-03-19T22:17:54.995Z,2.9
2019-03-19T22:20:55.207Z,2
2019-03-19T22:23:55.105Z,1.9
2019-03-19T22:26:54.987Z,2.4
2019-03-19T22:29:55.137Z,2.1
2019-03-19T22:32:54.858Z,2.1
2019-03-19T22:35:54.942Z,2.5
2019-03-19T22:38:54.956Z,2.5
2019-03-19T22:41:55.008Z,2
2019-03-19T22:44:55.257Z,2.5
2019-03-19T22:47:55.268Z,1.9
2019-03-19T22:50:54.890Z,2.4
2019-03-19T22:53:55.049Z,2.8
2019-03-19T22:56:55.097Z,2.3
2019-03-19T22:59:55.088Z,2
2019-03-19T23:02:55.138Z,2.1
2019-03-19T23:05:55.086Z,2.3
2019-03-19T23:08:54.870Z,2.3
2019-03-19T23:11:55.018Z,2.6
2019-03-19T23:14:55.004Z,2.5
2019-03-19T23:17:54.988Z,2
2019-03-19T23:20:55.058Z,2.7
2019-03-19T23:23:55.380Z,2.2
2019-03-19T23:26:54.986Z,2.1
2019-03-19T23:29:54.973Z,2.2
2019-03-19T23:32:55.095Z,2.7
2019-03-19T23:35:55.045Z,2.3
2019-03-19T23:38:55.246Z,2.2
2019-03-19T23:41:55.141Z,2.2
2019-03-19T23:44:54.859Z,2.8
2019-03-19T23:47:54.959Z,2.1
2019-03-19T23:50:55.073Z,2.1
2019-03-19T23:53:55.092Z,2.7
2019-03-19T23:56:55.212Z,2
2019-03-19T23:59:54.941Z,2.1
